sensor_id;sensor_type;location;lat;lon;timestamp;pressure;altitude;pressure_sealevel;temperature;humidity
55687;BME280;41911;52.362;4.978;2022-11-11T00:01:25;102690.18;;;9.46;57.83
55687;BME280;41911;52.362;4.978;2022-11-11T00:01:58;102697.80;;;9.42;57.94
55687;BME280;41911;52.362;4.978;2022-11-11T00:02:29;102684.55;;;9.23;58.64
55687;BME280;41911;52.362;4.978;2022-11-11T00:03:00;102689.31;;;9.40;58.50
55687;BME280;41911;52.362;4.978;2022-11-11T00:03:31;102688.50;;;9.12;58.60
55687;BME280;41911;52.362;4.978;2022-11-11T00:04:03;102698.92;;;9.56;58.42
55687;BME280;41911;52.362;4.978;2022-11-11T00:04:34;102687.98;;;9.71;58.84
55687;BME280;41911;52.362;4.978;2022-11-11T00:05:05;102693.25;;;9.46;59.21
55687;BME280;41911;52.362;4.978;2022-11-11T00:05:36;102695.23;;;9.71;58.90
55687;BME280;41911;52.362;4.978;2022-11-11T00:06:09;102693.77;;;9.65;59.05
55687;BME280;41911;52.362;4.978;2022-11-11T00:06:40;102692.53;;;9.06;58.89
55687;BME280;41911;52.362;4.978;2022-11-11T00:07:11;102697.60;;;9.71;58.65
55687;BME280;41911;52.362;4.978;2022-11-11T00:07:42;102699.26;;;9.38;58.49
55687;BME280;41911;52.362;4.978;2022-11-11T00:08:14;102699.75;;;9.68;58.17
55687;BME280;41911;52.362;4.978;2022-11-11T00:08:46;102701.36;;;9.93;58.21
55687;BME280;41911;52.362;4.978;2022-11-11T00:09:18;102694.21;;;8.75;59.56
55687;BME280;41911;52.362;4.978;2022-11-11T00:09:49;102694.00;;;9.09;59.89
55687;BME280;41911;52.362;4.978;2022-11-11T00:10:20;102690.46;;;8.80;60.50
55687;BME280;41911;52.362;4.978;2022-11-11T00:10:51;102690.08;;;9.29;59.62
55687;BME280;41911;52.362;4.978;2022-11-11T00:11:22;102699.29;;;9.60;59.02
55687;BME280;41911;52.362;4.978;2022-11-11T00:11:53;102687.89;;;9.22;59.74
55687;BME280;41911;52.362;4.978;2022-11-11T00:12:24;102689.69;;;9.65;58.97
55687;BME280;41911;52.362;4.978;2022-11-11T00:12:58;102694.99;;;9.22;59.00
55687;BME280;41911;52.362;4.978;2022-11-11T00:13:30;102691.76;;;9.13;59.33
55687;BME280;41911;52.362;4.978;2022-11-11T00:14:02;102687.62;;;9.59;59.06
55687;BME280;41911;52.362;4.978;2022-11-11T00:14:33;102688.33;;;9.46;59.22
55687;BME280;41911;52.362;4.978;2022-11-11T00:15:05;102694.53;;;9.32;58.87
55687;BME280;41911;52.362;4.978;2022-11-11T00:15:38;102694.21;;;8.95;60.14
55687;BME280;41911;52.362;4.978;2022-11-11T00:16:12;102694.92;;;7.98;60.96
55687;BME280;41911;52.362;4.978;2022-11-11T00:16:43;102696.69;;;8.48;61.15
55687;BME280;41911;52.362;4.978;2022-11-11T00:17:16;102691.58;;;8.67;60.85
55687;BME280;41911;52.362;4.978;2022-11-11T00:17:47;102690.01;;;9.38;60.10
55687;BME280;41911;52.362;4.978;2022-11-11T00:18:18;102695.57;;;9.41;59.45
55687;BME280;41911;52.362;4.978;2022-11-11T00:18:49;102690.34;;;9.03;60.06
55687;BME280;41911;52.362;4.978;2022-11-11T00:19:20;102694.50;;;9.43;59.37
55687;BME280;41911;52.362;4.978;2022-11-11T00:19:51;102695.07;;;9.54;59.19
55687;BME280;41911;52.362;4.978;2022-11-11T00:20:22;102695.70;;;9.07;59.94
55687;BME280;41911;52.362;4.978;2022-11-11T00:20:58;102693.02;;;9.09;59.89
55687;BME280;41911;52.362;4.978;2022-11-11T00:21:30;102696.17;;;9.42;59.41
55687;BME280;41911;52.362;4.978;2022-11-11T00:22:17;102695.59;;;9.03;59.99
55687;BME280;41911;52.362;4.978;2022-11-11T00:22:49;102697.58;;;8.82;59.95
55687;BME280;41911;52.362;4.978;2022-11-11T00:23:23;102694.68;;;8.97;59.62
55687;BME280;41911;52.362;4.978;2022-11-11T00:23:55;102696.76;;;9.02;60.03
55687;BME280;41911;52.362;4.978;2022-11-11T00:24:27;102699.55;;;9.14;59.95
55687;BME280;41911;52.362;4.978;2022-11-11T00:24:59;102696.36;;;9.49;59.76
55687;BME280;41911;52.362;4.978;2022-11-11T00:25:30;102695.33;;;9.44;59.25
55687;BME280;41911;52.362;4.978;2022-11-11T00:26:01;102694.11;;;9.28;59.50
55687;BME280;41911;52.362;4.978;2022-11-11T00:26:32;102697.24;;;9.33;59.40
55687;BME280;41911;52.362;4.978;2022-11-11T00:27:03;102695.75;;;9.01;59.98
55687;BME280;41911;52.362;4.978;2022-11-11T00:27:34;102691.89;;;9.12;59.89
55687;BME280;41911;52.362;4.978;2022-11-11T00:28:07;102696.90;;;9.48;59.19
55687;BME280;41911;52.362;4.978;2022-11-11T00:28:39;102690.97;;;9.63;58.94
55687;BME280;41911;52.362;4.978;2022-11-11T00:29:10;102695.91;;;9.73;58.97
55687;BME280;41911;52.362;4.978;2022-11-11T00:29:45;102694.42;;;9.51;58.87
55687;BME280;41911;52.362;4.978;2022-11-11T00:30:17;102692.57;;;9.65;58.67
55687;BME280;41911;52.362;4.978;2022-11-11T00:30:48;102687.85;;;9.38;59.05
55687;BME280;41911;52.362;4.978;2022-11-11T00:31:18;102695.67;;;9.88;58.34
55687;BME280;41911;52.362;4.978;2022-11-11T00:31:49;102684.11;;;8.87;59.88
55687;BME280;41911;52.362;4.978;2022-11-11T00:32:20;102693.57;;;9.30;59.36
55687;BME280;41911;52.362;4.978;2022-11-11T00:32:51;102685.68;;;8.94;60.02
55687;BME280;41911;52.362;4.978;2022-11-11T00:33:22;102691.47;;;9.16;59.67
55687;BME280;41911;52.362;4.978;2022-11-11T00:33:53;102692.70;;;9.52;59.34
55687;BME280;41911;52.362;4.978;2022-11-11T00:34:24;102686.43;;;9.12;59.51
55687;BME280;41911;52.362;4.978;2022-11-11T00:34:57;102690.70;;;9.22;59.52
55687;BME280;41911;52.362;4.978;2022-11-11T00:35:28;102694.76;;;9.19;59.06
55687;BME280;41911;52.362;4.978;2022-11-11T00:35:59;102690.01;;;9.44;59.02
55687;BME280;41911;52.362;4.978;2022-11-11T00:36:30;102692.39;;;9.23;59.42
55687;BME280;41911;52.362;4.978;2022-11-11T00:37:01;102692.71;;;9.11;59.54
55687;BME280;41911;52.362;4.978;2022-11-11T00:37:33;102690.63;;;8.87;60.12
55687;BME280;41911;52.362;4.978;2022-11-11T00:38:08;102691.90;;;9.30;59.44
55687;BME280;41911;52.362;4.978;2022-11-11T00:38:40;102684.20;;;9.26;59.36
55687;BME280;41911;52.362;4.978;2022-11-11T00:39:11;102686.86;;;9.34;59.20
55687;BME280;41911;52.362;4.978;2022-11-11T00:39:42;102688.66;;;9.13;59.04
55687;BME280;41911;52.362;4.978;2022-11-11T00:40:44;102683.52;;;9.54;58.78
55687;BME280;41911;52.362;4.978;2022-11-11T00:41:17;102682.67;;;9.64;58.37
55687;BME280;41911;52.362;4.978;2022-11-11T00:41:48;102682.53;;;9.56;58.58
55687;BME280;41911;52.362;4.978;2022-11-11T00:42:19;102684.28;;;9.49;58.79
55687;BME280;41911;52.362;4.978;2022-11-11T00:42:50;102675.89;;;8.96;59.48
55687;BME280;41911;52.362;4.978;2022-11-11T00:43:23;102677.55;;;8.84;59.37
55687;BME280;41911;52.362;4.978;2022-11-11T00:43:54;102670.86;;;9.55;58.71
55687;BME280;41911;52.362;4.978;2022-11-11T00:44:25;102674.93;;;9.67;58.40
55687;BME280;41911;52.362;4.978;2022-11-11T00:44:56;102674.23;;;9.31;58.55
55687;BME280;41911;52.362;4.978;2022-11-11T00:45:27;102676.84;;;9.24;58.62
55687;BME280;41911;52.362;4.978;2022-11-11T00:45:58;102670.77;;;9.34;58.99
55687;BME280;41911;52.362;4.978;2022-11-11T00:46:29;102680.53;;;9.31;58.86
55687;BME280;41911;52.362;4.978;2022-11-11T00:47:00;102670.85;;;9.32;59.01
55687;BME280;41911;52.362;4.978;2022-11-11T00:47:31;102665.46;;;9.19;59.29
55687;BME280;41911;52.362;4.978;2022-11-11T00:48:03;102671.43;;;9.40;58.99
55687;BME280;41911;52.362;4.978;2022-11-11T00:48:34;102667.17;;;8.84;59.86
55687;BME280;41911;52.362;4.978;2022-11-11T00:49:05;102670.49;;;9.10;59.37
55687;BME280;41911;52.362;4.978;2022-11-11T00:49:37;102673.31;;;9.17;59.38
55687;BME280;41911;52.362;4.978;2022-11-11T00:50:12;102671.20;;;8.96;59.70
55687;BME280;41911;52.362;4.978;2022-11-11T00:50:43;102668.48;;;8.97;59.67
55687;BME280;41911;52.362;4.978;2022-11-11T00:51:14;102672.44;;;9.04;59.43
55687;BME280;41911;52.362;4.978;2022-11-11T00:51:46;102670.08;;;8.75;60.07
55687;BME280;41911;52.362;4.978;2022-11-11T00:52:16;102674.06;;;8.81;59.99
55687;BME280;41911;52.362;4.978;2022-11-11T00:52:47;102670.58;;;9.25;59.74
55687;BME280;41911;52.362;4.978;2022-11-11T00:53:20;102669.44;;;9.18;59.88
55687;BME280;41911;52.362;4.978;2022-11-11T00:53:51;102674.80;;;8.86;59.94
55687;BME280;41911;52.362;4.978;2022-11-11T00:54:22;102678.23;;;9.14;59.67
55687;BME280;41911;52.362;4.978;2022-11-11T00:54:53;102672.90;;;8.43;60.64
55687;BME280;41911;52.362;4.978;2022-11-11T00:55:24;102672.23;;;8.58;60.95
55687;BME280;41911;52.362;4.978;2022-11-11T00:55:56;102674.57;;;8.60;60.50
55687;BME280;41911;52.362;4.978;2022-11-11T00:56:27;102680.71;;;8.74;60.26
55687;BME280;41911;52.362;4.978;2022-11-11T00:56:58;102676.22;;;8.30;60.99
55687;BME280;41911;52.362;4.978;2022-11-11T00:57:29;102682.34;;;8.40;61.12
55687;BME280;41911;52.362;4.978;2022-11-11T00:58:00;102680.26;;;8.43;61.19
55687;BME280;41911;52.362;4.978;2022-11-11T00:58:31;102679.69;;;8.53;60.80
55687;BME280;41911;52.362;4.978;2022-11-11T00:59:03;102681.04;;;8.60;61.09
55687;BME280;41911;52.362;4.978;2022-11-11T00:59:34;102680.34;;;8.01;61.62
55687;BME280;41911;52.362;4.978;2022-11-11T01:00:06;102681.59;;;8.85;61.19
55687;BME280;41911;52.362;4.978;2022-11-11T01:00:37;102685.27;;;8.35;61.53
55687;BME280;41911;52.362;4.978;2022-11-11T01:01:08;102678.24;;;8.13;61.95
55687;BME280;41911;52.362;4.978;2022-11-11T01:01:39;102688.23;;;8.35;61.56
55687;BME280;41911;52.362;4.978;2022-11-11T01:02:10;102681.15;;;8.28;61.97
55687;BME280;41911;52.362;4.978;2022-11-11T01:02:41;102681.96;;;8.45;61.57
55687;BME280;41911;52.362;4.978;2022-11-11T01:03:12;102684.95;;;8.34;61.21
55687;BME280;41911;52.362;4.978;2022-11-11T01:03:43;102681.84;;;8.06;62.14
55687;BME280;41911;52.362;4.978;2022-11-11T01:04:15;102685.56;;;8.14;62.22
55687;BME280;41911;52.362;4.978;2022-11-11T01:04:46;102683.13;;;8.11;62.19
55687;BME280;41911;52.362;4.978;2022-11-11T01:05:17;102684.04;;;8.36;61.82
55687;BME280;41911;52.362;4.978;2022-11-11T01:05:48;102684.93;;;8.25;61.87
55687;BME280;41911;52.362;4.978;2022-11-11T01:06:19;102680.50;;;8.09;62.26
55687;BME280;41911;52.362;4.978;2022-11-11T01:06:50;102687.76;;;8.52;61.43
55687;BME280;41911;52.362;4.978;2022-11-11T01:07:22;102690.74;;;8.28;61.58
55687;BME280;41911;52.362;4.978;2022-11-11T01:07:53;102692.21;;;8.13;62.07
55687;BME280;41911;52.362;4.978;2022-11-11T01:08:24;102696.77;;;7.79;62.86
55687;BME280;41911;52.362;4.978;2022-11-11T01:08:55;102690.36;;;8.21;62.55
55687;BME280;41911;52.362;4.978;2022-11-11T01:09:26;102688.93;;;8.23;62.11
55687;BME280;41911;52.362;4.978;2022-11-11T01:09:57;102692.27;;;8.41;61.59
55687;BME280;41911;52.362;4.978;2022-11-11T01:10:28;102694.80;;;8.82;60.84
55687;BME280;41911;52.362;4.978;2022-11-11T01:10:59;102694.83;;;8.79;60.81
55687;BME280;41911;52.362;4.978;2022-11-11T01:11:30;102694.69;;;8.71;60.24
55687;BME280;41911;52.362;4.978;2022-11-11T01:12:02;102692.06;;;8.06;61.40
55687;BME280;41911;52.362;4.978;2022-11-11T01:12:33;102696.76;;;8.16;61.34
55687;BME280;41911;52.362;4.978;2022-11-11T01:13:05;102697.94;;;8.74;60.91
55687;BME280;41911;52.362;4.978;2022-11-11T01:13:37;102697.25;;;8.99;60.33
55687;BME280;41911;52.362;4.978;2022-11-11T01:14:08;102700.34;;;9.06;60.07
55687;BME280;41911;52.362;4.978;2022-11-11T01:14:39;102693.83;;;8.35;61.21
55687;BME280;41911;52.362;4.978;2022-11-11T01:15:10;102697.52;;;8.07;61.50
55687;BME280;41911;52.362;4.978;2022-11-11T01:15:43;102705.51;;;8.46;60.66
55687;BME280;41911;52.362;4.978;2022-11-11T01:16:18;102696.90;;;8.25;60.88
55687;BME280;41911;52.362;4.978;2022-11-11T01:16:50;102702.39;;;8.91;61.03
55687;BME280;41911;52.362;4.978;2022-11-11T01:17:21;102711.70;;;8.76;60.77
55687;BME280;41911;52.362;4.978;2022-11-11T01:17:52;102716.40;;;8.77;60.71
55687;BME280;41911;52.362;4.978;2022-11-11T01:18:24;102707.14;;;8.79;61.14
55687;BME280;41911;52.362;4.978;2022-11-11T01:18:56;102716.23;;;8.35;61.25
55687;BME280;41911;52.362;4.978;2022-11-11T01:19:27;102712.30;;;8.79;60.80
55687;BME280;41911;52.362;4.978;2022-11-11T01:19:58;102711.56;;;8.91;60.38
55687;BME280;41911;52.362;4.978;2022-11-11T01:20:29;102717.86;;;8.73;60.00
55687;BME280;41911;52.362;4.978;2022-11-11T01:21:02;102713.25;;;9.24;59.65
55687;BME280;41911;52.362;4.978;2022-11-11T01:21:33;102716.36;;;8.73;60.51
55687;BME280;41911;52.362;4.978;2022-11-11T01:22:06;102720.88;;;8.72;60.56
55687;BME280;41911;52.362;4.978;2022-11-11T01:22:37;102722.63;;;8.79;59.86
55687;BME280;41911;52.362;4.978;2022-11-11T01:23:10;102729.98;;;8.66;59.98
55687;BME280;41911;52.362;4.978;2022-11-11T01:23:43;102721.56;;;8.87;59.67
55687;BME280;41911;52.362;4.978;2022-11-11T01:24:14;102718.77;;;9.23;59.46
55687;BME280;41911;52.362;4.978;2022-11-11T01:24:45;102721.36;;;8.92;59.49
55687;BME280;41911;52.362;4.978;2022-11-11T01:25:16;102726.68;;;9.06;59.83
55687;BME280;41911;52.362;4.978;2022-11-11T01:25:47;102721.80;;;9.27;59.38
55687;BME280;41911;52.362;4.978;2022-11-11T01:26:21;102724.99;;;8.74;59.93
55687;BME280;41911;52.362;4.978;2022-11-11T01:26:52;102726.35;;;8.62;60.08
55687;BME280;41911;52.362;4.978;2022-11-11T01:27:23;102733.20;;;8.81;59.81
55687;BME280;41911;52.362;4.978;2022-11-11T01:27:54;102726.60;;;9.15;59.25
55687;BME280;41911;52.362;4.978;2022-11-11T01:28:25;102722.28;;;9.03;59.37
55687;BME280;41911;52.362;4.978;2022-11-11T01:28:58;102724.75;;;8.66;59.93
55687;BME280;41911;52.362;4.978;2022-11-11T01:29:29;102717.88;;;8.61;60.02
55687;BME280;41911;52.362;4.978;2022-11-11T01:30:00;102720.64;;;8.80;59.83
55687;BME280;41911;52.362;4.978;2022-11-11T01:30:32;102722.71;;;9.05;59.27
55687;BME280;41911;52.362;4.978;2022-11-11T01:31:06;102718.68;;;8.90;59.53
55687;BME280;41911;52.362;4.978;2022-11-11T01:31:37;102719.23;;;9.38;58.64
55687;BME280;41911;52.362;4.978;2022-11-11T01:32:08;102714.34;;;9.78;58.44
55687;BME280;41911;52.362;4.978;2022-11-11T01:32:39;102720.27;;;9.43;58.50
55687;BME280;41911;52.362;4.978;2022-11-11T01:33:11;102715.36;;;8.92;59.24
55687;BME280;41911;52.362;4.978;2022-11-11T01:33:44;102714.41;;;9.36;58.69
55687;BME280;41911;52.362;4.978;2022-11-11T01:34:17;102712.20;;;9.12;59.15
55687;BME280;41911;52.362;4.978;2022-11-11T01:34:47;102715.09;;;8.75;59.18
55687;BME280;41911;52.362;4.978;2022-11-11T01:35:18;102717.38;;;9.75;58.44
55687;BME280;41911;52.362;4.978;2022-11-11T01:35:50;102718.79;;;9.62;58.17
55687;BME280;41911;52.362;4.978;2022-11-11T01:36:22;102717.03;;;8.88;58.51
55687;BME280;41911;52.362;4.978;2022-11-11T01:36:54;102713.82;;;9.51;58.10
55687;BME280;41911;52.362;4.978;2022-11-11T01:37:25;102711.86;;;10.04;57.47
55687;BME280;41911;52.362;4.978;2022-11-11T01:37:56;102710.94;;;9.51;57.57
55687;BME280;41911;52.362;4.978;2022-11-11T01:38:27;102712.58;;;9.27;57.94
55687;BME280;41911;52.362;4.978;2022-11-11T01:38:59;102708.81;;;9.24;58.07
55687;BME280;41911;52.362;4.978;2022-11-11T01:39:30;102709.92;;;9.50;58.22
55687;BME280;41911;52.362;4.978;2022-11-11T01:40:02;102708.92;;;9.16;58.37
55687;BME280;41911;52.362;4.978;2022-11-11T01:40:40;102710.97;;;9.42;58.38
55687;BME280;41911;52.362;4.978;2022-11-11T01:41:14;102705.20;;;8.83;59.47
55687;BME280;41911;52.362;4.978;2022-11-11T01:41:45;102706.72;;;9.18;58.74
55687;BME280;41911;52.362;4.978;2022-11-11T01:42:16;102709.17;;;9.47;58.30
55687;BME280;41911;52.362;4.978;2022-11-11T01:42:48;102709.42;;;9.15;58.25
55687;BME280;41911;52.362;4.978;2022-11-11T01:43:21;102708.09;;;9.41;58.38
55687;BME280;41911;52.362;4.978;2022-11-11T01:43:53;102710.74;;;9.06;58.48
55687;BME280;41911;52.362;4.978;2022-11-11T01:44:42;102710.04;;;9.12;58.73
55687;BME280;41911;52.362;4.978;2022-11-11T01:46:26;102704.10;;;8.55;58.73
55687;BME280;41911;52.362;4.978;2022-11-11T01:47:01;102712.10;;;9.27;58.47
55687;BME280;41911;52.362;4.978;2022-11-11T01:47:34;102707.44;;;9.05;59.02
55687;BME280;41911;52.362;4.978;2022-11-11T01:48:09;102709.13;;;8.83;59.37
55687;BME280;41911;52.362;4.978;2022-11-11T01:48:47;102704.64;;;8.86;58.98
55687;BME280;41911;52.362;4.978;2022-11-11T01:49:26;102704.25;;;9.21;58.71
55687;BME280;41911;52.362;4.978;2022-11-11T01:50:02;102704.95;;;8.54;59.93
55687;BME280;41911;52.362;4.978;2022-11-11T01:50:33;102703.15;;;8.96;59.25
55687;BME280;41911;52.362;4.978;2022-11-11T01:51:09;102701.90;;;9.30;58.65
55687;BME280;41911;52.362;4.978;2022-11-11T01:51:46;102702.56;;;9.11;58.88
55687;BME280;41911;52.362;4.978;2022-11-11T01:52:21;102699.67;;;9.36;58.40
55687;BME280;41911;52.362;4.978;2022-11-11T01:52:54;102698.54;;;9.38;58.43
55687;BME280;41911;52.362;4.978;2022-11-11T01:53:25;102692.30;;;8.64;59.12
55687;BME280;41911;52.362;4.978;2022-11-11T01:53:59;102696.32;;;8.96;59.17
55687;BME280;41911;52.362;4.978;2022-11-11T01:54:35;102692.64;;;9.10;58.87
55687;BME280;41911;52.362;4.978;2022-11-11T01:55:14;102693.05;;;8.77;59.02
55687;BME280;41911;52.362;4.978;2022-11-11T01:55:47;102696.18;;;8.51;60.02
55687;BME280;41911;52.362;4.978;2022-11-11T01:56:18;102685.50;;;8.75;59.61
55687;BME280;41911;52.362;4.978;2022-11-11T01:56:55;102690.82;;;8.84;60.01
55687;BME280;41911;52.362;4.978;2022-11-11T01:57:33;102690.97;;;8.63;59.94
55687;BME280;41911;52.362;4.978;2022-11-11T01:58:12;102689.45;;;8.75;59.63
55687;BME280;41911;52.362;4.978;2022-11-11T01:58:46;102689.12;;;8.69;59.68
55687;BME280;41911;52.362;4.978;2022-11-11T01:59:17;102689.87;;;8.20;60.79
55687;BME280;41911;52.362;4.978;2022-11-11T01:59:53;102685.63;;;8.26;60.67
55687;BME280;41911;52.362;4.978;2022-11-11T02:00:24;102686.65;;;8.33;61.02
55687;BME280;41911;52.362;4.978;2022-11-11T02:00:56;102681.96;;;8.09;60.96
55687;BME280;41911;52.362;4.978;2022-11-11T02:01:28;102679.88;;;8.77;59.97
55687;BME280;41911;52.362;4.978;2022-11-11T02:02:04;102681.68;;;8.97;59.89
55687;BME280;41911;52.362;4.978;2022-11-11T02:02:42;102678.85;;;8.69;59.77
55687;BME280;41911;52.362;4.978;2022-11-11T02:03:17;102685.55;;;8.40;60.30
55687;BME280;41911;52.362;4.978;2022-11-11T02:03:50;102683.48;;;8.57;60.13
55687;BME280;41911;52.362;4.978;2022-11-11T02:04:24;102680.38;;;8.47;60.34
55687;BME280;41911;52.362;4.978;2022-11-11T02:04:56;102679.39;;;8.59;60.49
55687;BME280;41911;52.362;4.978;2022-11-11T02:05:27;102677.23;;;8.43;60.79
55687;BME280;41911;52.362;4.978;2022-11-11T02:05:58;102676.31;;;8.19;60.74
55687;BME280;41911;52.362;4.978;2022-11-11T02:06:30;102673.47;;;8.09;61.57
55687;BME280;41911;52.362;4.978;2022-11-11T02:07:07;102673.94;;;8.17;61.39
55687;BME280;41911;52.362;4.978;2022-11-11T02:07:39;102683.96;;;8.24;61.38
55687;BME280;41911;52.362;4.978;2022-11-11T02:08:14;102676.98;;;8.12;61.64
55687;BME280;41911;52.362;4.978;2022-11-11T02:08:48;102677.84;;;8.55;60.87
55687;BME280;41911;52.362;4.978;2022-11-11T02:09:21;102675.35;;;8.99;60.52
55687;BME280;41911;52.362;4.978;2022-11-11T02:09:53;102673.26;;;8.53;60.73
55687;BME280;41911;52.362;4.978;2022-11-11T02:10:27;102673.22;;;8.47;60.90
55687;BME280;41911;52.362;4.978;2022-11-11T02:11:10;102669.58;;;8.40;61.08
55687;BME280;41911;52.362;4.978;2022-11-11T02:11:44;102680.06;;;8.17;61.66
55687;BME280;41911;52.362;4.978;2022-11-11T02:12:15;102676.57;;;7.32;62.74
55687;BME280;41911;52.362;4.978;2022-11-11T02:12:46;102670.58;;;8.15;62.20
55687;BME280;41911;52.362;4.978;2022-11-11T02:13:17;102669.78;;;8.21;61.64
55687;BME280;41911;52.362;4.978;2022-11-11T02:13:49;102675.29;;;8.15;61.75
55687;BME280;41911;52.362;4.978;2022-11-11T02:14:20;102669.71;;;8.45;61.30
55687;BME280;41911;52.362;4.978;2022-11-11T02:14:53;102665.23;;;8.73;60.66
55687;BME280;41911;52.362;4.978;2022-11-11T02:15:25;102666.04;;;8.71;60.51
55687;BME280;41911;52.362;4.978;2022-11-11T02:15:56;102667.00;;;8.51;60.80
55687;BME280;41911;52.362;4.978;2022-11-11T02:16:28;102665.90;;;8.17;60.88
55687;BME280;41911;52.362;4.978;2022-11-11T02:16:59;102668.25;;;8.56;60.73
55687;BME280;41911;52.362;4.978;2022-11-11T02:17:31;102674.80;;;8.17;60.81
55687;BME280;41911;52.362;4.978;2022-11-11T02:18:03;102672.53;;;8.52;60.99
55687;BME280;41911;52.362;4.978;2022-11-11T02:18:34;102667.40;;;8.19;61.31
55687;BME280;41911;52.362;4.978;2022-11-11T02:19:05;102671.10;;;8.25;60.97
55687;BME280;41911;52.362;4.978;2022-11-11T02:19:44;102668.07;;;8.87;60.32
55687;BME280;41911;52.362;4.978;2022-11-11T02:20:20;102671.30;;;8.52;60.77
55687;BME280;41911;52.362;4.978;2022-11-11T02:20:52;102665.66;;;8.62;61.30
55687;BME280;41911;52.362;4.978;2022-11-11T02:21:29;102670.28;;;7.80;61.77
55687;BME280;41911;52.362;4.978;2022-11-11T02:22:07;102665.31;;;8.03;61.85
55687;BME280;41911;52.362;4.978;2022-11-11T02:22:47;102671.06;;;8.17;62.28
55687;BME280;41911;52.362;4.978;2022-11-11T02:23:25;102669.81;;;8.15;61.95
55687;BME280;41911;52.362;4.978;2022-11-11T02:24:02;102671.63;;;8.08;62.67
55687;BME280;41911;52.362;4.978;2022-11-11T02:24:34;102670.70;;;7.63;63.01
55687;BME280;41911;52.362;4.978;2022-11-11T02:25:09;102667.00;;;8.15;61.93
55687;BME280;41911;52.362;4.978;2022-11-11T02:25:47;102670.34;;;8.02;61.47
55687;BME280;41911;52.362;4.978;2022-11-11T02:26:19;102667.23;;;8.68;61.10
55687;BME280;41911;52.362;4.978;2022-11-11T02:26:54;102669.79;;;7.91;62.12
55687;BME280;41911;52.362;4.978;2022-11-11T02:27:27;102669.88;;;7.89;61.70
55687;BME280;41911;52.362;4.978;2022-11-11T02:28:02;102663.15;;;8.44;61.64
55687;BME280;41911;52.362;4.978;2022-11-11T02:28:36;102667.68;;;8.15;61.86
55687;BME280;41911;52.362;4.978;2022-11-11T02:29:11;102672.13;;;8.19;61.51
55687;BME280;41911;52.362;4.978;2022-11-11T02:29:47;102673.98;;;8.56;60.79
55687;BME280;41911;52.362;4.978;2022-11-11T02:30:20;102677.77;;;8.29;61.88
55687;BME280;41911;52.362;4.978;2022-11-11T02:30:51;102673.97;;;8.17;61.21
55687;BME280;41911;52.362;4.978;2022-11-11T02:31:26;102681.79;;;8.23;61.44
55687;BME280;41911;52.362;4.978;2022-11-11T02:31:57;102678.04;;;8.11;61.77
55687;BME280;41911;52.362;4.978;2022-11-11T02:32:28;102672.20;;;7.81;62.35
55687;BME280;41911;52.362;4.978;2022-11-11T02:32:59;102676.91;;;8.29;62.00
55687;BME280;41911;52.362;4.978;2022-11-11T02:33:30;102673.50;;;8.34;61.48
55687;BME280;41911;52.362;4.978;2022-11-11T02:34:01;102683.93;;;8.74;61.15
55687;BME280;41911;52.362;4.978;2022-11-11T02:34:33;102670.93;;;8.05;61.88
55687;BME280;41911;52.362;4.978;2022-11-11T02:35:11;102676.30;;;7.89;62.27
55687;BME280;41911;52.362;4.978;2022-11-11T02:35:45;102686.83;;;8.16;62.45
55687;BME280;41911;52.362;4.978;2022-11-11T02:36:18;102676.91;;;7.51;63.58
55687;BME280;41911;52.362;4.978;2022-11-11T02:36:49;102680.92;;;7.83;62.63
55687;BME280;41911;52.362;4.978;2022-11-11T02:37:22;102685.15;;;8.54;61.80
55687;BME280;41911;52.362;4.978;2022-11-11T02:37:53;102681.35;;;8.03;62.32
55687;BME280;41911;52.362;4.978;2022-11-11T02:38:25;102681.59;;;8.12;62.46
55687;BME280;41911;52.362;4.978;2022-11-11T02:38:56;102682.68;;;7.59;63.01
55687;BME280;41911;52.362;4.978;2022-11-11T02:39:28;102687.57;;;8.21;62.35
55687;BME280;41911;52.362;4.978;2022-11-11T02:40:01;102689.15;;;8.11;62.52
55687;BME280;41911;52.362;4.978;2022-11-11T02:40:36;102691.53;;;7.54;62.94
55687;BME280;41911;52.362;4.978;2022-11-11T02:41:08;102693.27;;;7.94;62.71
55687;BME280;41911;52.362;4.978;2022-11-11T02:41:39;102691.28;;;7.86;63.03
55687;BME280;41911;52.362;4.978;2022-11-11T02:42:21;102692.10;;;8.04;62.64
55687;BME280;41911;52.362;4.978;2022-11-11T02:42:55;102697.35;;;8.53;61.87
55687;BME280;41911;52.362;4.978;2022-11-11T02:43:28;102689.44;;;8.28;61.66
55687;BME280;41911;52.362;4.978;2022-11-11T02:44:00;102692.15;;;8.38;61.98
55687;BME280;41911;52.362;4.978;2022-11-11T02:44:32;102696.98;;;8.38;61.93
55687;BME280;41911;52.362;4.978;2022-11-11T02:45:04;102698.13;;;8.40;61.87
55687;BME280;41911;52.362;4.978;2022-11-11T02:45:35;102698.11;;;8.38;61.44
55687;BME280;41911;52.362;4.978;2022-11-11T02:46:07;102702.55;;;8.35;61.23
55687;BME280;41911;52.362;4.978;2022-11-11T02:46:38;102706.12;;;8.60;60.79
55687;BME280;41911;52.362;4.978;2022-11-11T02:47:09;102709.60;;;9.00;60.70
55687;BME280;41911;52.362;4.978;2022-11-11T02:47:41;102700.95;;;8.62;61.24
55687;BME280;41911;52.362;4.978;2022-11-11T02:48:12;102703.03;;;8.37;61.35
55687;BME280;41911;52.362;4.978;2022-11-11T02:48:43;102700.54;;;8.61;60.68
55687;BME280;41911;52.362;4.978;2022-11-11T02:49:13;102708.28;;;8.43;60.44
55687;BME280;41911;52.362;4.978;2022-11-11T02:49:44;102705.90;;;8.30;60.64
55687;BME280;41911;52.362;4.978;2022-11-11T02:50:15;102707.78;;;8.80;60.22
55687;BME280;41911;52.362;4.978;2022-11-11T02:50:46;102706.16;;;8.39;60.99
55687;BME280;41911;52.362;4.978;2022-11-11T02:51:18;102716.10;;;8.47;60.35
55687;BME280;41911;52.362;4.978;2022-11-11T02:51:49;102707.25;;;8.70;60.93
55687;BME280;41911;52.362;4.978;2022-11-11T02:52:20;102711.16;;;7.81;61.55
55687;BME280;41911;52.362;4.978;2022-11-11T02:52:51;102708.45;;;8.30;61.25
55687;BME280;41911;52.362;4.978;2022-11-11T02:53:22;102707.29;;;8.40;61.03
55687;BME280;41911;52.362;4.978;2022-11-11T02:53:53;102714.41;;;8.83;60.28
55687;BME280;41911;52.362;4.978;2022-11-11T02:54:24;102714.68;;;8.72;60.38